Greenfield, Missouri
Current Conditions -  °F | °C
As of 2:52 PM on Saturday 25 Oct 2014 (Local Time) from KSGF Reporting Station
Clear Clear  
Wind Chill: 82°   Ceiling: Unl
Heat Index: 83°   Visibility: 10mi
Dew Point: 63°   Wind: 5mph
Humidity: 52%   Direction: 280°W
Pressure: 30.04"   Gusts: NA
Location:  37.42°N, 93.84°W
Report Text: KSGF 251952Z 28004KT 10SM CLR 28/17 A3004 RMK AO2 SLP162 T02780172
Loading
Personal Weather Stations






























Interactive Weather Map
Tropical Storm Tracking
New forecast layout! Learn more

10-Day Weather Forecast

Advertisements
Track Severe Weather on mobile